createdAt,value
2023-04-04T00:00:42.590Z,36.53
2023-04-04T00:03:10.539Z,37.92
2023-04-04T00:05:38.130Z,37.29
2023-04-04T00:08:05.779Z,37.72
2023-04-04T00:10:33.504Z,38.31
2023-04-04T00:13:01.255Z,38.81
2023-04-04T00:15:28.813Z,38.42
2023-04-04T00:17:57.326Z,38.53
2023-04-04T00:20:24.936Z,38.43
2023-04-04T00:22:52.357Z,39.87
2023-04-04T00:25:20.180Z,39.34
2023-04-04T00:27:48.322Z,39.49
2023-04-04T00:30:16.298Z,39.11
2023-04-04T00:32:44.105Z,38.67
2023-04-04T00:35:11.659Z,38.75
2023-04-04T00:37:39.168Z,39.26
2023-04-04T00:40:08.608Z,40.12
2023-04-04T00:42:36.026Z,40.62
2023-04-04T00:45:03.645Z,40.80
2023-04-04T00:47:31.799Z,39.96
2023-04-04T00:49:59.263Z,40.59
2023-04-04T00:52:27.269Z,41.15
2023-04-04T00:54:56.365Z,41.43
2023-04-04T00:57:24.614Z,42.50
2023-04-04T00:59:52.293Z,41.59
2023-04-04T01:02:20.302Z,42.09
2023-04-04T01:04:48.676Z,42.14
2023-04-04T01:07:16.188Z,41.29
2023-04-04T01:09:47.060Z,42.30
2023-04-04T01:12:14.570Z,41.67
2023-04-04T01:14:42.037Z,41.73
2023-04-04T01:17:09.915Z,43.05
2023-04-04T01:19:41.913Z,42.82
2023-04-04T01:22:10.143Z,41.88
2023-04-04T01:24:39.412Z,41.89
2023-04-04T01:27:07.015Z,42.87
2023-04-04T01:29:39.019Z,42.34
2023-04-04T01:32:46.361Z,43.30
2023-04-04T01:35:32.911Z,42.44
2023-04-04T01:38:06.265Z,42.47
2023-04-04T01:40:37.406Z,42.18
2023-04-04T01:43:05.476Z,42.32
2023-04-04T01:45:33.234Z,44.02
2023-04-04T01:48:01.412Z,43.14
2023-04-04T01:50:29.713Z,43.01
2023-04-04T01:52:57.113Z,42.36
2023-04-04T01:55:24.852Z,42.81
2023-04-04T01:57:52.510Z,43.30
2023-04-04T02:00:20.066Z,42.94
2023-04-04T02:02:47.417Z,44.08
2023-04-04T02:05:15.124Z,43.17
2023-04-04T02:07:42.527Z,41.91
2023-04-04T02:10:11.183Z,42.42
2023-04-04T02:12:39.999Z,42.71
2023-04-04T02:15:07.833Z,41.44
2023-04-04T02:17:35.762Z,41.71
2023-04-04T02:20:04.094Z,41.52
2023-04-04T02:22:31.797Z,41.80
2023-04-04T02:25:00.444Z,40.82
2023-04-04T02:27:27.881Z,40.60
2023-04-04T02:29:55.555Z,41.60
2023-04-04T02:32:23.776Z,41.43
2023-04-04T02:34:51.793Z,42.45
2023-04-04T02:37:19.772Z,41.83
2023-04-04T02:39:48.105Z,41.64
2023-04-04T02:42:16.180Z,41.28
2023-04-04T02:44:44.370Z,41.56
2023-04-04T02:47:13.011Z,42.91
2023-04-04T02:49:40.562Z,41.75
2023-04-04T02:52:08.911Z,40.27
2023-04-04T02:54:36.885Z,42.21
2023-04-04T02:57:07.012Z,42.44
2023-04-04T02:59:34.663Z,40.81
2023-04-04T03:02:02.263Z,41.88
2023-04-04T03:04:29.838Z,42.12
2023-04-04T03:06:58.568Z,42.14
2023-04-04T03:09:26.098Z,42.13
2023-04-04T03:11:53.502Z,42.25
2023-04-04T03:14:21.517Z,42.53
2023-04-04T03:16:50.040Z,43.32
2023-04-04T03:19:17.529Z,43.00
2023-04-04T03:21:45.534Z,43.15
2023-04-04T03:24:13.340Z,43.69
2023-04-04T03:26:40.740Z,43.54
2023-04-04T03:29:08.778Z,43.76
2023-04-04T03:31:36.437Z,43.12
2023-04-04T03:34:04.574Z,43.74
2023-04-04T03:36:32.453Z,44.14
2023-04-04T03:39:00.450Z,43.04
2023-04-04T03:41:28.008Z,43.44
2023-04-04T03:43:55.752Z,43.79
2023-04-04T03:46:25.498Z,44.40
2023-04-04T03:48:52.968Z,44.67
2023-04-04T03:51:24.828Z,44.80
2023-04-04T03:53:52.323Z,45.26
2023-04-04T03:56:19.913Z,46.07
2023-04-04T03:58:47.988Z,45.78
2023-04-04T04:01:16.909Z,45.07
2023-04-04T04:03:44.671Z,45.12
2023-04-04T04:06:12.872Z,45.42
2023-04-04T04:08:41.611Z,45.16
2023-04-04T04:11:09.348Z,45.56
2023-04-04T04:13:38.832Z,45.45
2023-04-04T04:16:06.716Z,45.51
2023-04-04T04:18:35.640Z,45.09
2023-04-04T04:21:05.102Z,45.93
2023-04-04T04:23:32.903Z,46.49
2023-04-04T04:26:00.973Z,45.81
2023-04-04T04:28:34.174Z,46.17
2023-04-04T04:31:09.902Z,45.53
2023-04-04T04:33:41.321Z,45.96
2023-04-04T04:36:09.416Z,44.90
2023-04-04T04:38:37.877Z,44.14
2023-04-04T04:41:05.506Z,44.56
2023-04-04T04:43:36.974Z,45.06
2023-04-04T04:46:04.612Z,44.99
2023-04-04T04:48:33.017Z,43.86
2023-04-04T04:51:00.834Z,43.27
2023-04-04T04:53:28.736Z,43.30
2023-04-04T04:55:56.186Z,42.70
2023-04-04T04:58:25.904Z,42.73
2023-04-04T05:00:56.855Z,42.21
2023-04-04T05:03:25.836Z,42.60
2023-04-04T05:05:53.449Z,41.91
2023-04-04T05:08:20.873Z,43.58
2023-04-04T05:10:49.972Z,45.04
2023-04-04T05:13:18.543Z,45.95
2023-04-04T05:15:47.815Z,45.52
2023-04-04T05:18:16.326Z,47.05
2023-04-04T05:20:44.139Z,48.19
2023-04-04T05:23:12.089Z,47.14
2023-04-04T05:25:40.053Z,47.12
2023-04-04T05:28:08.088Z,46.97
2023-04-04T05:30:36.454Z,47.13
2023-04-04T05:33:07.020Z,46.72
2023-04-04T05:35:34.654Z,46.77
2023-04-04T06:20:24.184Z,43.23
2023-04-04T06:22:53.210Z,42.30
2023-04-04T06:25:21.014Z,41.96
2023-04-04T06:27:48.662Z,42.65
2023-04-04T06:30:18.160Z,41.28
2023-04-04T06:32:46.466Z,40.24
2023-04-04T06:35:14.880Z,41.01
2023-04-04T06:37:43.139Z,40.46
2023-04-04T06:40:11.866Z,42.03
2023-04-04T06:42:40.162Z,41.64
2023-04-04T06:45:08.263Z,40.85
2023-04-04T06:47:35.725Z,40.08
2023-04-04T06:50:03.424Z,40.21
2023-04-04T06:52:31.161Z,40.15
2023-04-04T06:54:58.541Z,39.12
2023-04-04T06:57:25.973Z,40.11
2023-04-04T06:59:53.980Z,38.68
2023-04-04T07:02:21.419Z,38.14
2023-04-04T07:04:48.883Z,37.66
2023-04-04T07:07:16.517Z,38.88
2023-04-04T07:09:44.277Z,39.32
2023-04-04T07:12:11.737Z,38.68
2023-04-04T07:14:39.510Z,36.96
2023-04-04T07:17:17.175Z,37.70
2023-04-04T07:19:51.756Z,38.18
2023-04-04T07:22:19.175Z,37.20
2023-04-04T07:24:48.239Z,37.06
2023-04-04T07:27:15.976Z,36.92
2023-04-04T07:29:43.426Z,36.61
2023-04-04T07:32:11.017Z,37.00
2023-04-04T07:34:38.757Z,36.87
2023-04-04T07:37:06.140Z,35.60
2023-04-04T07:39:33.469Z,37.80
2023-04-04T07:42:01.410Z,37.98
2023-04-04T07:44:28.775Z,37.57
2023-04-04T07:47:08.574Z,39.11
2023-04-04T07:49:55.911Z,39.84
2023-04-04T07:52:23.281Z,37.76
2023-04-04T07:54:51.839Z,39.32
2023-04-04T07:57:19.198Z,39.25
2023-04-04T07:59:47.240Z,40.46
2023-04-04T08:02:14.944Z,40.49
2023-04-04T08:04:42.718Z,38.94
2023-04-04T08:07:10.440Z,38.76
2023-04-04T08:09:37.788Z,38.88
2023-04-04T08:12:08.696Z,37.27
2023-04-04T08:14:36.555Z,37.42
2023-04-04T08:17:03.972Z,37.29
2023-04-04T08:19:31.709Z,37.35
2023-04-04T08:21:59.086Z,38.46
2023-04-04T08:24:27.764Z,38.56
2023-04-04T08:27:04.631Z,39.63
2023-04-04T08:29:34.411Z,38.64
2023-04-04T08:32:02.168Z,37.56
2023-04-04T08:34:29.770Z,38.46
2023-04-04T08:36:57.185Z,38.43
2023-04-04T08:39:24.874Z,37.21
2023-04-04T08:42:03.035Z,36.61
2023-04-04T08:44:31.593Z,36.52
2023-04-04T08:47:05.387Z,35.81
2023-04-04T08:49:36.999Z,35.62
2023-04-04T08:52:06.369Z,35.39
2023-04-04T08:54:34.999Z,36.60
2023-04-04T08:57:02.515Z,34.95
2023-04-04T08:59:30.014Z,35.00
2023-04-04T09:02:03.169Z,35.11
2023-04-04T09:04:31.889Z,35.56
2023-04-04T09:07:02.440Z,35.25
2023-04-04T09:09:34.180Z,33.93
2023-04-04T09:12:02.376Z,34.80
2023-04-04T09:14:30.901Z,35.52
2023-04-04T09:16:59.488Z,35.96
2023-04-04T09:19:27.682Z,34.56
2023-04-04T09:21:55.091Z,33.13
2023-04-04T09:24:22.508Z,33.79
2023-04-04T09:26:52.594Z,32.58
2023-04-04T09:29:21.371Z,34.32
2023-04-04T09:31:49.664Z,32.82
2023-04-04T09:34:18.444Z,33.06
2023-04-04T09:36:46.147Z,32.61
2023-04-04T09:39:16.518Z,32.67
2023-04-04T09:41:45.504Z,33.56
2023-04-04T09:44:13.360Z,33.47
2023-04-04T09:46:41.606Z,31.41
2023-04-04T09:49:20.677Z,32.62
2023-04-04T09:51:49.597Z,33.80
2023-04-04T09:54:29.785Z,33.14
2023-04-04T09:56:58.299Z,31.70
2023-04-04T09:59:26.089Z,31.78
2023-04-04T10:01:55.100Z,32.01
2023-04-04T10:04:26.966Z,31.29
2023-04-04T10:06:55.840Z,31.30
2023-04-04T10:09:23.631Z,32.40
2023-04-04T10:11:51.022Z,30.98
2023-04-04T10:14:18.896Z,31.18
2023-04-04T10:16:46.636Z,30.57
2023-04-04T10:19:17.821Z,32.08
2023-04-04T10:21:46.104Z,30.70
2023-04-04T10:24:14.228Z,31.58
2023-04-04T10:26:41.665Z,31.01
2023-04-04T10:29:09.128Z,29.79
2023-04-04T10:31:41.030Z,30.20
2023-04-04T10:34:20.980Z,31.68
2023-04-04T10:37:10.756Z,29.88
2023-04-04T10:39:47.110Z,29.75
2023-04-04T10:42:16.100Z,29.56
2023-04-04T10:44:45.395Z,29.15
2023-04-04T10:47:14.935Z,30.58
2023-04-04T10:49:45.030Z,30.41
2023-04-04T10:52:13.917Z,29.24
2023-04-04T10:54:42.252Z,29.78
2023-04-04T10:57:10.751Z,28.56
2023-04-04T10:59:58.980Z,29.15
2023-04-04T11:02:47.318Z,29.08
2023-04-04T11:05:22.825Z,28.61
2023-04-04T11:08:08.313Z,29.10
2023-04-04T11:10:42.252Z,28.45
2023-04-04T11:13:34.598Z,28.97
2023-04-04T11:16:07.723Z,29.82
2023-04-04T11:18:41.765Z,28.97
2023-04-04T11:21:16.877Z,29.50
2023-04-04T11:23:47.612Z,28.39
2023-04-04T11:26:35.643Z,30.31
2023-04-04T11:29:04.816Z,31.49
2023-04-04T11:31:40.656Z,30.19
2023-04-04T11:34:10.521Z,30.00
2023-04-04T11:36:39.012Z,30.04
2023-04-04T11:39:06.288Z,30.37
2023-04-04T11:41:55.699Z,28.96
2023-04-04T11:44:25.339Z,28.47
2023-04-04T11:47:11.297Z,30.31
2023-04-04T11:49:42.736Z,29.44
2023-04-04T11:52:12.365Z,29.79
2023-04-04T11:54:41.813Z,28.31
2023-04-04T11:57:13.502Z,29.52
2023-04-04T11:59:43.048Z,29.21
2023-04-04T12:02:10.771Z,28.67
2023-04-04T12:04:44.532Z,28.41
2023-04-04T12:07:12.766Z,29.24
2023-04-04T12:09:40.693Z,28.97
2023-04-04T12:12:14.433Z,29.59
2023-04-04T12:14:42.554Z,28.60
2023-04-04T12:17:10.279Z,27.15
2023-04-04T12:19:38.903Z,29.03
2023-04-04T12:22:08.162Z,29.22
2023-04-04T12:24:36.112Z,28.32
2023-04-04T12:27:03.881Z,28.27
2023-04-04T12:29:36.355Z,28.56
2023-04-04T12:32:04.798Z,27.73
2023-04-04T12:34:34.049Z,28.31
2023-04-04T12:37:04.179Z,27.22
2023-04-04T12:39:32.193Z,26.73
2023-04-04T12:42:03.739Z,27.75
2023-04-04T12:44:33.063Z,26.92
2023-04-04T12:47:05.982Z,28.14
2023-04-04T12:49:44.268Z,27.45
2023-04-04T12:52:34.720Z,27.74
2023-04-04T12:55:12.812Z,27.33
2023-04-04T12:57:40.670Z,26.49
2023-04-04T13:00:09.464Z,28.21
2023-04-04T13:02:38.597Z,26.69
2023-04-04T13:05:07.561Z,25.99
2023-04-04T13:07:43.137Z,26.36
2023-04-04T13:10:14.733Z,26.20
2023-04-04T13:13:02.406Z,26.23
2023-04-04T13:15:53.028Z,26.73
2023-04-04T13:18:23.752Z,27.06
2023-04-04T13:20:52.639Z,27.03
2023-04-04T13:23:23.041Z,26.91
2023-04-04T13:25:51.376Z,25.88
2023-04-04T13:28:19.067Z,26.41
2023-04-04T13:30:49.652Z,26.79
2023-04-04T13:33:18.064Z,28.06
2023-04-04T13:35:46.612Z,28.39
2023-04-04T13:38:14.137Z,26.64
2023-04-04T13:40:41.611Z,26.66
2023-04-04T13:43:11.406Z,26.70
2023-04-04T13:45:39.249Z,27.92
2023-04-04T13:48:07.252Z,27.00
2023-04-04T13:50:36.528Z,27.76
2023-04-04T13:53:03.922Z,28.31
2023-04-04T13:55:31.303Z,28.87
2023-04-04T13:57:58.920Z,29.29
2023-04-04T14:00:26.771Z,29.69
2023-04-04T14:02:56.583Z,29.55
2023-04-04T14:05:27.217Z,28.97
2023-04-04T14:07:55.818Z,28.40
2023-04-04T14:10:23.305Z,26.89
2023-04-04T14:12:50.816Z,27.33
2023-04-04T14:15:18.677Z,27.73
2023-04-04T14:17:46.177Z,27.60
2023-04-04T14:20:13.646Z,27.68
2023-04-04T14:22:41.700Z,27.79
2023-04-04T14:25:09.352Z,27.63
2023-04-04T14:27:36.745Z,27.39
2023-04-04T14:30:04.740Z,27.28
2023-04-04T14:32:32.728Z,27.39
2023-04-04T14:35:01.289Z,27.65
2023-04-04T14:37:28.904Z,27.24
2023-04-04T14:39:56.282Z,28.43
2023-04-04T14:42:23.669Z,26.46
2023-04-04T14:44:51.451Z,28.93
2023-04-04T14:47:19.387Z,28.18
2023-04-04T14:49:46.755Z,28.04
2023-04-04T14:52:14.419Z,28.60
2023-04-04T14:54:41.788Z,26.81
2023-04-04T14:57:09.181Z,26.64
2023-04-04T14:59:36.854Z,27.11
2023-04-04T15:02:04.216Z,28.42
2023-04-04T15:04:31.937Z,28.43
2023-04-04T15:07:03.180Z,27.68
2023-04-04T15:09:30.842Z,28.37
2023-04-04T15:11:58.910Z,28.09
2023-04-04T15:14:26.594Z,28.48
2023-04-04T15:16:54.449Z,28.17
2023-04-04T15:19:21.912Z,28.04
2023-04-04T15:21:49.636Z,28.58
2023-04-04T15:24:17.000Z,28.15
2023-04-04T15:26:44.470Z,27.74
2023-04-04T15:29:12.117Z,27.01
2023-04-04T15:31:39.497Z,27.37
2023-04-04T15:34:06.880Z,27.29
2023-04-04T15:36:35.798Z,27.47
2023-04-04T15:39:04.045Z,26.88
2023-04-04T15:41:31.546Z,27.66
2023-04-04T15:43:59.222Z,27.86
2023-04-04T15:46:28.437Z,27.89
2023-04-04T15:48:56.337Z,28.79
2023-04-04T15:51:27.586Z,27.91
2023-04-04T15:53:58.041Z,28.07
2023-04-04T15:56:25.719Z,27.17
2023-04-04T15:58:53.116Z,27.17
2023-04-04T16:01:20.530Z,28.37
2023-04-04T16:03:48.445Z,29.27
2023-04-04T16:06:16.144Z,27.97
2023-04-04T16:08:43.750Z,27.90
2023-04-04T16:11:11.732Z,27.68
2023-04-04T16:13:39.222Z,27.19
2023-04-04T16:16:06.794Z,29.62
2023-04-04T16:18:34.505Z,28.38
2023-04-04T16:21:03.384Z,27.62
2023-04-04T16:23:31.952Z,29.17
2023-04-04T16:25:59.796Z,28.80
2023-04-04T16:28:27.422Z,30.34
2023-04-04T16:30:54.782Z,28.32
2023-04-04T16:33:24.151Z,28.30
2023-04-04T16:35:51.629Z,28.60
2023-04-04T16:38:19.028Z,30.21
2023-04-04T16:40:46.866Z,31.73
2023-04-04T16:43:14.253Z,31.51
2023-04-04T16:45:41.760Z,31.72
2023-04-04T16:48:10.531Z,32.73
2023-04-04T16:50:38.196Z,29.02
2023-04-04T16:53:06.173Z,29.59
2023-04-04T16:55:33.907Z,29.71
2023-04-04T16:58:01.270Z,29.84
2023-04-04T17:00:29.105Z,30.19
2023-04-04T17:02:58.211Z,30.58
2023-04-04T17:05:25.848Z,30.56
2023-04-04T17:07:53.232Z,30.73
2023-04-04T17:10:21.022Z,31.09
2023-04-04T17:12:48.537Z,31.08
2023-04-04T17:15:17.928Z,31.56
2023-04-04T17:17:46.160Z,31.41
2023-04-04T17:20:17.757Z,31.61
2023-04-04T17:22:47.455Z,31.06
2023-04-04T17:25:14.899Z,31.65
2023-04-04T17:27:42.719Z,31.15
2023-04-04T17:30:11.585Z,30.71
2023-04-04T17:32:39.509Z,31.38
2023-04-04T17:35:07.323Z,31.47
2023-04-04T17:37:35.200Z,31.16
2023-04-04T17:40:05.910Z,31.24
2023-04-04T17:42:33.457Z,30.71
2023-04-04T17:45:01.653Z,30.22
2023-04-04T17:47:29.266Z,31.17
2023-04-04T17:49:57.393Z,30.73
2023-04-04T17:52:26.001Z,31.19
2023-04-04T17:54:53.776Z,30.35
2023-04-04T17:57:22.296Z,30.63
2023-04-04T17:59:50.005Z,29.52
2023-04-04T18:02:19.058Z,29.45
2023-04-04T18:04:47.609Z,29.89
2023-04-04T18:07:16.917Z,29.04
2023-04-04T18:09:44.562Z,29.20
2023-04-04T18:12:12.856Z,30.20
2023-04-04T18:14:40.956Z,28.96
2023-04-04T18:17:09.041Z,30.00
2023-04-04T18:19:38.919Z,29.71
2023-04-04T18:22:06.479Z,29.92
2023-04-04T18:24:34.409Z,28.75
2023-04-04T18:27:03.513Z,29.35
2023-04-04T18:29:32.610Z,30.44
2023-04-04T18:32:01.909Z,30.06
2023-04-04T18:34:31.388Z,30.09
2023-04-04T18:36:58.857Z,30.57
2023-04-04T18:39:26.770Z,29.51
2023-04-04T18:41:55.282Z,29.43
2023-04-04T18:44:24.638Z,29.73
2023-04-04T18:46:52.686Z,30.14
2023-04-04T18:49:20.351Z,30.64
2023-04-04T18:51:48.213Z,30.06
2023-04-04T18:54:16.052Z,30.22
2023-04-04T18:56:44.376Z,30.86
2023-04-04T18:59:12.073Z,30.57
2023-04-04T19:01:42.454Z,30.78
2023-04-04T19:04:11.365Z,30.60
2023-04-04T19:06:39.445Z,30.53
2023-04-04T19:09:08.143Z,31.87
2023-04-04T19:11:37.061Z,32.69
2023-04-04T19:14:06.626Z,32.82
2023-04-04T19:16:37.770Z,32.31
2023-04-04T19:19:05.993Z,31.69
2023-04-04T19:21:33.856Z,32.74
2023-04-04T19:24:02.571Z,32.16
2023-04-04T19:26:32.586Z,33.05
2023-04-04T19:29:01.692Z,33.84
2023-04-04T19:31:35.809Z,33.47
2023-04-04T19:34:09.962Z,33.13
2023-04-04T19:36:39.051Z,32.95
2023-04-04T19:39:10.224Z,33.32
2023-04-04T19:41:40.096Z,34.65
2023-04-04T19:44:20.427Z,33.76
2023-04-04T19:46:48.418Z,33.77
2023-04-04T19:49:19.367Z,33.80
2023-04-04T19:51:54.083Z,33.44
2023-04-04T19:54:30.545Z,33.44
2023-04-04T19:57:01.265Z,34.19
2023-04-04T19:59:53.645Z,33.95
2023-04-04T20:02:27.949Z,33.59
2023-04-04T20:04:56.284Z,33.74
2023-04-04T20:07:24.625Z,33.31
2023-04-04T20:09:52.749Z,32.95
2023-04-04T20:12:22.984Z,33.26
2023-04-04T20:14:55.698Z,32.80
2023-04-04T20:17:24.794Z,33.15
2023-04-04T20:19:53.521Z,33.32
2023-04-04T20:22:23.083Z,32.57
2023-04-04T20:24:52.087Z,32.66
2023-04-04T20:27:24.093Z,33.95
2023-04-04T20:29:53.426Z,33.45
2023-04-04T20:32:21.454Z,34.49
2023-04-04T20:34:50.480Z,34.14
2023-04-04T20:37:23.745Z,34.56
2023-04-04T20:39:54.779Z,35.00
2023-04-04T20:42:34.151Z,34.20
2023-04-04T20:45:14.120Z,34.10
2023-04-04T20:47:47.624Z,34.02
2023-04-04T20:50:20.843Z,34.76
2023-04-04T20:52:58.906Z,33.25
2023-04-04T20:55:28.600Z,32.68
2023-04-04T20:58:26.659Z,34.09
2023-04-04T21:00:54.429Z,34.07
2023-04-04T21:03:32.412Z,33.34
2023-04-04T21:06:12.898Z,34.84
2023-04-04T21:08:47.501Z,35.99
2023-04-04T21:11:23.197Z,33.43
2023-04-04T21:13:50.850Z,34.03
2023-04-04T21:16:19.224Z,33.52
2023-04-04T21:18:47.097Z,35.10
2023-04-04T21:21:20.939Z,34.07
2023-04-04T21:23:49.652Z,34.28
2023-04-04T21:26:28.932Z,35.52
2023-04-04T21:28:57.881Z,34.79
2023-04-04T21:31:28.723Z,35.51
2023-04-04T21:33:58.166Z,35.17
2023-04-04T21:36:28.718Z,35.25
2023-04-04T21:39:00.982Z,36.47
2023-04-04T21:41:31.161Z,35.22
2023-04-04T21:44:00.738Z,35.13
2023-04-04T21:46:32.821Z,35.86
2023-04-04T21:49:00.947Z,35.87
2023-04-04T21:51:28.346Z,36.08
2023-04-04T21:53:56.286Z,36.22
2023-04-04T21:56:32.886Z,36.44
2023-04-04T21:59:02.168Z,35.95
2023-04-04T22:01:33.300Z,35.17
2023-04-04T22:04:01.320Z,35.07
2023-04-04T22:06:28.973Z,36.43
2023-04-04T22:08:57.282Z,35.63
2023-04-04T22:11:26.129Z,34.83
2023-04-04T22:14:03.227Z,36.14
2023-04-04T22:16:31.971Z,36.78
2023-04-04T22:19:01.259Z,36.04
2023-04-04T22:21:28.935Z,35.43
2023-04-04T22:24:00.947Z,35.69
2023-04-04T22:26:34.793Z,35.81
2023-04-04T22:29:03.980Z,36.54
2023-04-04T22:31:34.258Z,37.73
2023-04-04T22:34:04.089Z,35.52
2023-04-04T22:36:31.458Z,36.57
2023-04-04T22:38:58.994Z,36.69
2023-04-04T22:41:28.296Z,36.78
2023-04-04T22:43:57.341Z,37.97
2023-04-04T22:46:29.409Z,37.88
2023-04-04T22:49:05.641Z,38.76
2023-04-04T22:51:35.173Z,38.26
2023-04-04T22:54:03.283Z,39.67
2023-04-04T22:56:31.123Z,38.91
2023-04-04T22:58:58.537Z,37.91
2023-04-04T23:01:26.329Z,38.39
2023-04-04T23:03:53.749Z,37.45
2023-04-04T23:06:21.126Z,38.42
2023-04-04T23:08:48.810Z,38.77
2023-04-04T23:11:16.169Z,38.34
2023-04-04T23:13:43.674Z,39.24
2023-04-04T23:16:11.346Z,40.41
2023-04-04T23:18:38.800Z,39.40
2023-04-04T23:21:07.317Z,40.50
2023-04-04T23:23:34.974Z,40.10
2023-04-04T23:26:02.935Z,40.38
2023-04-04T23:28:32.596Z,39.87
2023-04-04T23:31:00.527Z,40.46
2023-04-04T23:33:27.966Z,40.41
2023-04-04T23:35:55.591Z,40.46
2023-04-04T23:38:23.385Z,40.75
2023-04-04T23:40:51.137Z,40.85
2023-04-04T23:43:18.573Z,41.01
2023-04-04T23:45:46.245Z,41.21
2023-04-04T23:48:13.604Z,41.11
2023-04-04T23:50:41.583Z,40.93
2023-04-04T23:53:09.445Z,41.28
2023-04-04T23:55:37.011Z,41.68
2023-04-04T23:58:05.367Z,41.13
